TimeCST,TemperatureF,Dew PointF,Humidity,Sea Level PressureIn,VisibilityMPH,Wind Direction,Wind SpeedMPH,Gust SpeedMPH,PrecipitationIn,Events,Conditions,WindDirDegrees,DateUTC
12:56 AM,15.1,10.9,84,30.45,10.0,SSW,8.1,-,N/A,,Clear,210,2012-11-27 06:56:00
1:56 AM,15.1,10.9,84,30.43,10.0,Calm,Calm,-,N/A,,Clear,0,2012-11-27 07:56:00
2:56 AM,15.1,10.9,84,30.41,10.0,Calm,Calm,-,N/A,,Clear,0,2012-11-27 08:56:00
3:56 AM,16.0,12.0,84,30.39,10.0,Calm,Calm,-,N/A,,Clear,0,2012-11-27 09:56:00
4:56 AM,19.0,15.1,85,30.36,10.0,SSW,5.8,-,N/A,,Clear,200,2012-11-27 10:56:00
6:56 AM,19.0,15.1,85,30.33,10.0,SSW,11.5,-,N/A,,Clear,200,2012-11-27 12:56:00
7:56 AM,19.9,16.0,85,30.31,9.0,SSW,13.8,-,N/A,,Clear,200,2012-11-27 13:56:00
8:56 AM,23.0,19.0,85,30.30,10.0,South,16.1,-,N/A,,Clear,190,2012-11-27 14:56:00
9:56 AM,28.0,21.9,78,30.28,10.0,SSW,13.8,-,N/A,,Clear,200,2012-11-27 15:56:00
11:56 AM,37.9,25.0,60,30.22,10.0,SW,16.1,25.3,N/A,,Clear,230,2012-11-27 17:56:00
12:56 PM,39.0,25.0,57,30.19,10.0,WSW,16.1,-,N/A,,Clear,240,2012-11-27 18:56:00
1:56 PM,39.9,25.0,55,30.18,10.0,WSW,13.8,-,N/A,,Clear,250,2012-11-27 19:56:00
3:56 PM,41.0,26.1,55,30.19,10.0,West,12.7,-,N/A,,Clear,280,2012-11-27 21:56:00
4:56 PM,37.0,25.0,62,30.22,10.0,West,5.8,-,N/A,,Clear,280,2012-11-27 22:56:00
5:56 PM,32.0,24.1,73,30.25,10.0,WSW,6.9,-,N/A,,Clear,250,2012-11-27 23:56:00
6:56 PM,30.0,23.0,75,30.27,10.0,West,8.1,-,N/A,,Clear,270,2012-11-28 00:56:00
7:56 PM,27.0,21.9,81,30.29,10.0,West,5.8,-,N/A,,Clear,270,2012-11-28 01:56:00
8:56 PM,27.0,21.9,81,30.31,10.0,Calm,Calm,-,N/A,,Clear,0,2012-11-28 02:56:00
9:56 PM,27.0,21.9,81,30.32,10.0,Calm,Calm,-,N/A,,Clear,0,2012-11-28 03:56:00
10:56 PM,26.1,21.9,84,30.33,10.0,Calm,Calm,-,N/A,,Clear,0,2012-11-28 04:56:00
11:56 PM,25.0,21.0,85,30.33,10.0,West,8.1,-,N/A,,Clear,280,2012-11-28 05:56:00